createdAt,value
2022-11-17T00:00:41.997Z,4.43
2022-11-17T00:01:44.359Z,4.10
2022-11-17T00:02:47.437Z,3.60
2022-11-17T00:03:51.064Z,4.40
2022-11-17T00:04:53.340Z,4.40
2022-11-17T00:05:55.588Z,3.95
2022-11-17T00:06:58.663Z,3.92
2022-11-17T00:08:01.101Z,3.83
2022-11-17T00:09:03.477Z,3.88
2022-11-17T00:10:06.359Z,3.83
2022-11-17T00:11:09.163Z,3.97
2022-11-17T00:12:32.882Z,3.42
2022-11-17T00:13:54.646Z,3.50
2022-11-17T00:14:56.939Z,3.10
2022-11-17T00:15:59.197Z,3.80
2022-11-17T00:17:05.745Z,3.47
2022-11-17T00:18:26.835Z,3.42
2022-11-17T00:19:49.437Z,4.28
2022-11-17T00:21:10.225Z,3.50
2022-11-17T00:22:12.487Z,3.53
2022-11-17T00:23:14.757Z,3.33
2022-11-17T00:24:17.126Z,3.88
2022-11-17T00:25:19.549Z,3.70
2022-11-17T00:26:24.532Z,3.60
2022-11-17T00:27:26.974Z,3.38
2022-11-17T00:28:29.458Z,3.35
2022-11-17T00:29:32.435Z,3.13
2022-11-17T00:30:53.476Z,3.45
2022-11-17T00:32:14.487Z,2.90
2022-11-17T00:33:35.799Z,3.28
2022-11-17T00:34:38.300Z,3.10
2022-11-17T00:35:40.624Z,3.15
2022-11-17T00:36:48.270Z,2.80
2022-11-17T00:38:09.344Z,3.10
2022-11-17T00:39:13.053Z,3.22
2022-11-17T00:40:15.352Z,3.35
2022-11-17T00:41:17.679Z,3.20
2022-11-17T00:42:20.014Z,2.90
2022-11-17T00:43:22.288Z,2.83
2022-11-17T00:44:25.320Z,3.42
2022-11-17T00:45:27.590Z,3.10
2022-11-17T00:46:30.120Z,3.22
2022-11-17T00:47:36.179Z,3.05
2022-11-17T00:48:38.483Z,2.80
2022-11-17T00:49:40.809Z,3.20
2022-11-17T00:50:43.063Z,3.25
2022-11-17T00:51:45.327Z,3.67
2022-11-17T00:52:47.637Z,3.13
2022-11-17T00:53:49.941Z,3.58
2022-11-17T00:54:52.252Z,2.97
2022-11-17T00:55:54.490Z,3.10
2022-11-17T00:56:56.811Z,2.95
2022-11-17T00:57:59.146Z,2.85
2022-11-17T00:59:01.522Z,3.03
2022-11-17T01:00:04.259Z,3.47
2022-11-17T01:01:07.436Z,3.47
2022-11-17T01:02:09.742Z,3.30
2022-11-17T01:03:11.979Z,3.22
2022-11-17T01:04:15.715Z,3.22
2022-11-17T01:05:18.115Z,3.08
2022-11-17T01:06:20.537Z,3.13
2022-11-17T01:07:22.964Z,3.90
2022-11-17T01:08:25.277Z,3.35
2022-11-17T01:09:27.576Z,3.55
2022-11-17T01:10:29.867Z,2.70
2022-11-17T01:11:32.256Z,2.88
2022-11-17T01:12:34.578Z,3.08
2022-11-17T01:13:38.973Z,2.92
2022-11-17T01:14:41.695Z,2.60
2022-11-17T01:15:44.058Z,2.80
2022-11-17T01:16:46.328Z,3.08
2022-11-17T01:17:48.850Z,3.10
2022-11-17T01:18:52.745Z,2.78
2022-11-17T01:19:55.095Z,2.63
2022-11-17T01:21:10.062Z,3.10
2022-11-17T01:22:12.976Z,3.03
2022-11-17T01:23:15.264Z,3.35
2022-11-17T01:24:18.040Z,3.05
2022-11-17T01:25:20.646Z,2.72
2022-11-17T01:26:25.962Z,2.78
2022-11-17T01:27:28.242Z,3.03
2022-11-17T01:28:30.659Z,2.95
2022-11-17T01:29:33.058Z,2.58
2022-11-17T01:30:35.333Z,3.40
2022-11-17T01:31:40.034Z,2.97
2022-11-17T01:32:42.340Z,2.80
2022-11-17T01:33:45.274Z,3.20
2022-11-17T01:34:47.848Z,3.05
2022-11-17T01:35:50.130Z,2.85
2022-11-17T01:37:11.033Z,2.70
2022-11-17T01:38:13.293Z,2.67
2022-11-17T01:39:15.610Z,3.03
2022-11-17T01:40:18.034Z,3.22
2022-11-17T01:41:23.798Z,2.88
2022-11-17T01:42:27.128Z,2.70
2022-11-17T01:43:43.688Z,3.17
2022-11-17T01:45:02.559Z,3.00
2022-11-17T01:46:06.713Z,2.60
2022-11-17T01:47:28.131Z,3.08
2022-11-17T01:48:30.565Z,3.30
2022-11-17T01:49:33.325Z,2.75
2022-11-17T01:50:47.108Z,2.75
2022-11-17T01:51:56.055Z,2.78
2022-11-17T01:53:02.425Z,2.90
2022-11-17T01:54:04.962Z,2.50
2022-11-17T01:55:09.927Z,2.30
2022-11-17T01:56:16.783Z,2.53
2022-11-17T01:57:24.476Z,2.75
2022-11-17T01:58:37.675Z,2.63
2022-11-17T01:59:44.587Z,2.80
2022-11-17T02:00:47.301Z,2.90
2022-11-17T02:01:56.638Z,2.70
2022-11-17T02:02:59.338Z,2.60
2022-11-17T02:04:01.830Z,2.05
2022-11-17T02:05:10.456Z,2.30
2022-11-17T02:06:20.936Z,2.70
2022-11-17T02:07:32.614Z,2.38
2022-11-17T02:08:38.331Z,2.05
2022-11-17T02:09:41.297Z,2.30
2022-11-17T02:10:48.562Z,2.28
2022-11-17T02:11:57.778Z,2.85
2022-11-17T02:13:01.332Z,2.45
2022-11-17T02:14:05.335Z,2.50
2022-11-17T02:15:08.196Z,2.20
2022-11-17T02:16:15.178Z,2.88
2022-11-17T02:17:18.946Z,2.90
2022-11-17T02:18:21.368Z,2.70
2022-11-17T02:19:27.339Z,2.90
2022-11-17T02:20:47.446Z,3.08
2022-11-17T02:21:58.198Z,2.53
2022-11-17T02:23:28.275Z,2.63
2022-11-17T02:24:48.296Z,2.42
2022-11-17T02:26:33.271Z,2.70
2022-11-17T02:27:53.499Z,2.63
2022-11-17T02:29:31.655Z,17.45
2022-11-17T02:30:58.488Z,14.40
2022-11-17T02:32:13.234Z,12.30
2022-11-17T02:33:24.921Z,11.07
2022-11-17T02:34:45.510Z,9.98
2022-11-17T02:36:12.518Z,7.75
2022-11-17T02:37:38.360Z,6.43
2022-11-17T02:38:55.493Z,5.53
2022-11-17T02:40:04.698Z,5.43
2022-11-17T02:41:22.924Z,5.38
2022-11-17T02:42:53.975Z,5.65
2022-11-17T02:44:10.737Z,5.13
2022-11-17T02:45:21.878Z,4.82
2022-11-17T02:46:28.462Z,5.00
2022-11-17T02:47:34.485Z,5.07
2022-11-17T02:48:41.334Z,5.30
2022-11-17T02:49:50.219Z,4.30
2022-11-17T02:50:54.403Z,4.90
2022-11-17T02:51:59.036Z,5.32
2022-11-17T02:53:01.385Z,4.55
2022-11-17T02:54:04.463Z,5.07
2022-11-17T02:55:10.641Z,4.90
2022-11-17T02:56:13.189Z,4.93
2022-11-17T02:57:39.903Z,5.38
2022-11-17T02:58:42.371Z,3.53
2022-11-17T02:59:48.731Z,3.22
2022-11-17T03:01:09.077Z,3.08
2022-11-17T03:02:43.985Z,2.97
2022-11-17T03:03:57.232Z,8.25
2022-11-17T03:05:11.113Z,8.10
2022-11-17T03:06:25.308Z,6.65
2022-11-17T03:07:33.333Z,5.50
2022-11-17T03:08:42.789Z,5.45
2022-11-17T03:09:57.134Z,5.20
2022-11-17T03:11:05.283Z,5.35
2022-11-17T03:12:14.983Z,5.07
2022-11-17T03:13:30.958Z,4.95
2022-11-17T03:14:44.082Z,4.30
2022-11-17T03:15:46.326Z,4.22
2022-11-17T03:17:07.579Z,5.03
2022-11-17T03:18:21.195Z,4.55
2022-11-17T03:19:34.913Z,4.32
2022-11-17T03:20:47.470Z,4.70
2022-11-17T03:22:13.658Z,4.57
2022-11-17T03:23:24.476Z,4.57
2022-11-17T03:24:33.559Z,4.35
2022-11-17T03:25:39.665Z,4.50
2022-11-17T03:27:07.405Z,4.05
2022-11-17T03:28:11.703Z,2.72
2022-11-17T03:29:17.478Z,2.70
2022-11-17T03:30:22.246Z,2.60
2022-11-17T03:31:27.678Z,2.38
2022-11-17T03:32:35.992Z,8.52
2022-11-17T03:33:40.453Z,5.20
2022-11-17T03:34:49.233Z,4.35
2022-11-17T03:36:01.725Z,3.92
2022-11-17T03:37:07.134Z,3.63
2022-11-17T03:38:13.469Z,3.60
2022-11-17T03:39:23.679Z,3.92
2022-11-17T03:40:30.889Z,3.95
2022-11-17T03:41:39.129Z,4.47
2022-11-17T03:42:46.591Z,3.85
2022-11-17T03:43:52.829Z,4.13
2022-11-17T03:44:58.220Z,3.97
2022-11-17T03:46:13.067Z,3.60
2022-11-17T03:47:18.168Z,4.20
2022-11-17T03:48:42.041Z,3.80
2022-11-17T03:50:27.820Z,3.55
2022-11-17T03:51:33.371Z,3.67
2022-11-17T03:52:38.053Z,3.63
2022-11-17T03:53:41.901Z,4.25
2022-11-17T03:54:44.338Z,3.70
2022-11-17T03:55:58.940Z,3.40
2022-11-17T03:57:20.695Z,4.13
2022-11-17T03:58:27.874Z,3.85
2022-11-17T03:59:45.344Z,3.90
2022-11-17T04:00:52.085Z,4.00
2022-11-17T04:01:54.575Z,3.70
2022-11-17T04:03:00.268Z,3.95
2022-11-17T04:04:02.815Z,3.63
2022-11-17T04:05:06.839Z,3.85
2022-11-17T04:06:09.164Z,6.18
2022-11-17T04:07:11.510Z,54.70
2022-11-17T04:08:13.824Z,48.20
2022-11-17T04:09:19.990Z,59.28
2022-11-17T04:10:26.333Z,46.65
2022-11-17T04:11:48.947Z,41.78
2022-11-17T04:13:10.857Z,29.38
2022-11-17T04:14:31.889Z,18.05
2022-11-17T04:15:57.525Z,15.40
2022-11-17T04:16:59.797Z,14.05
2022-11-17T04:18:04.228Z,15.00
2022-11-17T04:19:06.586Z,13.70
2022-11-17T04:20:09.814Z,13.10
2022-11-17T04:21:12.115Z,12.50
2022-11-17T04:22:14.421Z,11.60
2022-11-17T04:23:16.746Z,12.10
2022-11-17T04:24:18.971Z,13.23
2022-11-17T04:25:41.208Z,12.02
2022-11-17T04:27:02.284Z,11.02
2022-11-17T04:28:23.341Z,11.30
2022-11-17T04:29:25.693Z,11.48
2022-11-17T04:30:27.976Z,10.40
2022-11-17T04:31:31.621Z,11.32
2022-11-17T04:32:33.899Z,10.30
2022-11-17T04:33:37.720Z,10.93
2022-11-17T04:34:43.327Z,10.57
2022-11-17T04:35:50.664Z,10.38
2022-11-17T04:36:53.024Z,10.63
2022-11-17T04:37:55.290Z,10.65
2022-11-17T04:38:59.302Z,10.15
2022-11-17T04:40:01.734Z,10.32
2022-11-17T04:41:25.812Z,10.18
2022-11-17T04:42:28.942Z,9.55
2022-11-17T04:43:31.386Z,9.93
2022-11-17T04:44:33.612Z,9.23
2022-11-17T04:45:35.917Z,9.35
2022-11-17T04:46:40.349Z,9.63
2022-11-17T04:47:42.607Z,9.60
2022-11-17T04:48:45.657Z,10.00
2022-11-17T04:49:47.940Z,9.57
2022-11-17T04:50:53.893Z,9.20
2022-11-17T04:51:56.393Z,8.60
2022-11-17T04:52:58.666Z,9.40
2022-11-17T04:54:02.427Z,8.38
2022-11-17T04:55:04.999Z,9.00
2022-11-17T04:56:07.829Z,9.35
2022-11-17T04:57:10.170Z,9.13
2022-11-17T04:58:12.533Z,9.32
2022-11-17T04:59:14.845Z,8.10
2022-11-17T05:00:17.507Z,8.95
2022-11-17T05:01:20.884Z,8.57
2022-11-17T05:02:23.217Z,7.43
2022-11-17T05:03:25.506Z,28.38
2022-11-17T05:04:48.078Z,81.53
2022-11-17T05:05:51.022Z,80.47
2022-11-17T05:06:53.361Z,71.25
2022-11-17T05:07:55.659Z,57.28
2022-11-17T05:08:58.992Z,34.40
2022-11-17T05:10:01.465Z,26.73
2022-11-17T05:11:23.259Z,21.83
2022-11-17T05:12:44.075Z,19.80
2022-11-17T05:13:49.113Z,19.25
2022-11-17T05:14:52.284Z,19.95
2022-11-17T05:16:16.486Z,16.48
2022-11-17T05:17:18.737Z,19.10
2022-11-17T05:18:21.043Z,13.32
2022-11-17T05:19:25.892Z,17.10
2022-11-17T05:20:28.214Z,28.75
2022-11-17T05:21:30.471Z,31.92
2022-11-17T05:22:51.581Z,30.13
2022-11-17T05:23:53.975Z,22.30
2022-11-17T05:24:56.545Z,22.27
2022-11-17T05:25:58.826Z,21.25
2022-11-17T05:27:01.373Z,21.75
2022-11-17T05:28:03.632Z,20.00
2022-11-17T05:29:07.769Z,19.98
2022-11-17T05:30:11.000Z,18.50
2022-11-17T05:31:13.663Z,18.00
2022-11-17T05:32:16.331Z,16.58
2022-11-17T05:33:18.631Z,15.80
2022-11-17T05:34:21.248Z,17.08
2022-11-17T05:35:23.505Z,17.30
2022-11-17T05:36:27.205Z,16.58
2022-11-17T05:37:29.456Z,16.13
2022-11-17T05:38:31.923Z,15.40
2022-11-17T05:39:34.244Z,48.30
2022-11-17T05:40:36.589Z,33.63
2022-11-17T05:41:38.896Z,35.15
2022-11-17T05:42:41.330Z,23.20
2022-11-17T05:43:44.114Z,21.35
2022-11-17T05:44:48.311Z,23.92
2022-11-17T05:45:50.620Z,22.77
2022-11-17T05:46:52.894Z,19.27
2022-11-17T05:47:55.134Z,21.65
2022-11-17T05:48:57.443Z,21.13
2022-11-17T05:49:59.751Z,21.25
2022-11-17T05:51:02.742Z,19.70
2022-11-17T05:52:05.273Z,19.42
2022-11-17T05:53:08.238Z,18.25
2022-11-17T05:54:10.585Z,17.85
2022-11-17T05:55:12.926Z,17.10
2022-11-17T05:56:39.525Z,18.02
2022-11-17T05:57:42.362Z,16.85
2022-11-17T05:58:47.346Z,17.58
2022-11-17T05:59:55.510Z,16.83
2022-11-17T06:00:58.298Z,16.65
2022-11-17T06:02:18.820Z,16.10
2022-11-17T06:03:32.017Z,16.90
2022-11-17T06:04:34.858Z,16.23
2022-11-17T06:05:37.361Z,16.60
2022-11-17T06:06:39.634Z,16.25
2022-11-17T06:07:41.969Z,16.17
2022-11-17T06:08:44.218Z,15.48
2022-11-17T06:09:47.472Z,16.77
2022-11-17T06:10:49.774Z,15.27
2022-11-17T06:11:52.128Z,14.68
2022-11-17T06:12:54.370Z,15.45
2022-11-17T06:13:56.713Z,15.48
2022-11-17T06:14:59.005Z,16.38
2022-11-17T06:16:04.462Z,15.82
2022-11-17T06:17:22.573Z,15.05
2022-11-17T06:18:33.349Z,14.65
2022-11-17T06:19:40.343Z,15.27
2022-11-17T06:20:48.355Z,14.88
2022-11-17T06:22:11.093Z,14.10
2022-11-17T06:23:14.599Z,15.20
2022-11-17T06:24:17.340Z,14.55
2022-11-17T06:25:20.603Z,14.95
2022-11-17T06:26:22.948Z,14.52
2022-11-17T06:27:25.920Z,14.90
2022-11-17T06:28:30.250Z,15.32
2022-11-17T06:29:32.690Z,14.90
2022-11-17T06:30:36.778Z,23.30
2022-11-17T06:31:41.139Z,15.68
2022-11-17T06:32:44.226Z,13.95
2022-11-17T06:33:47.322Z,13.48
2022-11-17T06:34:55.239Z,13.85
2022-11-17T06:36:01.002Z,15.07
2022-11-17T06:37:03.288Z,14.73
2022-11-17T06:38:05.610Z,14.35
2022-11-17T06:39:07.880Z,14.02
2022-11-17T06:40:11.588Z,15.35
2022-11-17T06:41:14.001Z,15.40
2022-11-17T06:42:16.267Z,14.50
2022-11-17T06:43:19.093Z,13.68
2022-11-17T06:44:21.370Z,13.43
2022-11-17T06:45:24.229Z,12.90
2022-11-17T06:46:37.708Z,13.90
2022-11-17T06:47:40.335Z,14.52
2022-11-17T06:48:42.667Z,13.32
2022-11-17T06:49:44.956Z,13.27
2022-11-17T06:50:48.706Z,13.93
2022-11-17T06:51:51.041Z,13.57
2022-11-17T06:52:57.732Z,12.95
2022-11-17T06:54:00.210Z,12.70
2022-11-17T06:55:02.647Z,13.05
2022-11-17T06:56:07.196Z,12.25
2022-11-17T06:57:09.828Z,12.50
2022-11-17T06:58:12.285Z,13.18
2022-11-17T06:59:15.983Z,13.82
2022-11-17T07:00:19.165Z,13.68
2022-11-17T07:01:21.705Z,13.93
2022-11-17T07:02:24.192Z,12.95
2022-11-17T07:03:26.566Z,13.80
2022-11-17T07:04:29.795Z,12.82
2022-11-17T07:05:33.946Z,12.93
2022-11-17T07:06:37.412Z,12.82
2022-11-17T07:07:39.839Z,13.05
2022-11-17T07:08:42.596Z,13.27
2022-11-17T07:09:45.010Z,13.32
2022-11-17T07:10:51.526Z,13.68
2022-11-17T07:11:53.969Z,13.63
2022-11-17T07:12:56.926Z,12.23
2022-11-17T07:13:59.357Z,13.23
2022-11-17T07:15:01.932Z,12.45
2022-11-17T07:16:07.048Z,12.73
2022-11-17T07:17:09.441Z,13.27
2022-11-17T07:18:11.874Z,12.85
2022-11-17T07:19:14.231Z,13.10
2022-11-17T07:20:17.196Z,13.00
2022-11-17T07:21:19.786Z,12.93
2022-11-17T07:22:22.170Z,11.45
2022-11-17T07:23:24.472Z,12.80
2022-11-17T07:24:26.852Z,12.30
2022-11-17T07:25:29.180Z,12.45
2022-11-17T07:26:31.473Z,12.40
2022-11-17T07:27:34.036Z,12.27
2022-11-17T07:28:36.974Z,12.00
2022-11-17T07:29:39.557Z,12.48
2022-11-17T07:30:41.923Z,13.15
2022-11-17T07:31:44.296Z,12.68
2022-11-17T07:32:51.923Z,12.52
2022-11-17T07:33:57.008Z,11.85
2022-11-17T07:35:01.511Z,12.75
2022-11-17T07:36:06.003Z,12.20
2022-11-17T07:37:08.395Z,11.70
2022-11-17T07:38:10.961Z,11.38
2022-11-17T07:39:21.089Z,12.70
2022-11-17T07:40:23.904Z,10.00
2022-11-17T07:41:26.253Z,11.18
2022-11-17T07:42:28.610Z,11.90
2022-11-17T07:43:31.577Z,10.15
2022-11-17T07:44:34.474Z,10.25
2022-11-17T07:45:37.051Z,9.88
2022-11-17T07:46:39.392Z,10.40
2022-11-17T07:47:41.895Z,10.63
2022-11-17T07:48:44.549Z,9.82
2022-11-17T07:49:46.967Z,10.20
2022-11-17T07:50:49.600Z,11.18
2022-11-17T07:51:51.950Z,10.95
2022-11-17T07:52:56.029Z,10.45
2022-11-17T07:53:58.403Z,11.23
2022-11-17T07:55:00.780Z,9.93
2022-11-17T07:56:05.117Z,10.18
2022-11-17T07:57:07.435Z,10.32
2022-11-17T07:58:09.764Z,10.57
2022-11-17T07:59:15.962Z,10.70
2022-11-17T08:00:21.082Z,10.63
2022-11-17T08:01:23.539Z,10.45
2022-11-17T08:02:25.992Z,10.45
2022-11-17T08:03:28.372Z,10.55
2022-11-17T08:04:30.773Z,10.30
2022-11-17T08:05:42.971Z,10.93
2022-11-17T08:06:46.718Z,11.13
2022-11-17T08:07:56.611Z,10.65
2022-11-17T08:08:58.963Z,10.88
2022-11-17T08:10:01.361Z,10.82
2022-11-17T08:11:09.711Z,10.52
2022-11-17T08:12:12.035Z,11.20
2022-11-17T08:13:15.416Z,11.68
2022-11-17T08:14:17.838Z,10.75
2022-11-17T08:15:22.216Z,11.60
2022-11-17T08:16:27.223Z,11.70
2022-11-17T08:17:31.443Z,11.73
2022-11-17T08:18:34.186Z,12.70
2022-11-17T08:19:36.881Z,13.18
2022-11-17T08:20:39.273Z,12.15
2022-11-17T08:21:41.580Z,12.45
2022-11-17T08:22:44.319Z,12.82
2022-11-17T08:23:52.074Z,13.20
2022-11-17T08:24:54.528Z,13.02
2022-11-17T08:25:57.041Z,13.05
2022-11-17T08:26:59.408Z,12.68
2022-11-17T08:28:01.755Z,12.52
2022-11-17T08:29:04.401Z,12.65
2022-11-17T08:30:07.792Z,13.32
2022-11-17T08:31:10.210Z,13.10
2022-11-17T08:32:12.581Z,13.07
2022-11-17T08:33:14.929Z,13.00
2022-11-17T08:34:17.402Z,14.00
2022-11-17T08:35:22.560Z,13.18
2022-11-17T08:36:24.886Z,13.48
2022-11-17T08:37:27.285Z,11.48
2022-11-17T08:38:29.920Z,10.40
2022-11-17T08:39:32.335Z,12.13
2022-11-17T08:40:34.676Z,12.43
2022-11-17T08:41:37.125Z,12.70
2022-11-17T08:42:39.901Z,13.32
2022-11-17T08:43:42.558Z,13.20
2022-11-17T08:44:45.583Z,14.68
2022-11-17T08:45:47.921Z,12.88
2022-11-17T08:46:50.337Z,13.63
2022-11-17T08:47:53.404Z,13.07
2022-11-17T08:48:57.281Z,12.82
2022-11-17T08:50:00.040Z,13.65
2022-11-17T08:51:08.702Z,12.77
2022-11-17T08:52:11.064Z,12.57
2022-11-17T08:53:21.024Z,12.52
2022-11-17T08:54:23.548Z,11.63
2022-11-17T08:55:26.723Z,13.07
2022-11-17T08:56:29.114Z,12.00
2022-11-17T08:57:32.671Z,10.95
2022-11-17T08:58:39.564Z,12.38
2022-11-17T08:59:42.004Z,11.50
2022-11-17T09:00:46.644Z,12.45
2022-11-17T09:01:49.027Z,12.25
2022-11-17T09:02:51.767Z,12.05
2022-11-17T09:03:54.165Z,11.48
2022-11-17T09:04:56.882Z,11.63
2022-11-17T09:05:59.969Z,11.68
2022-11-17T09:07:02.351Z,11.77
2022-11-17T09:08:22.753Z,11.48
2022-11-17T09:09:31.492Z,12.88
2022-11-17T09:10:34.087Z,11.45
2022-11-17T09:11:36.417Z,12.15
2022-11-17T09:12:38.754Z,11.45
2022-11-17T09:13:41.692Z,11.38
2022-11-17T09:14:44.331Z,13.40
2022-11-17T09:15:46.607Z,14.48
2022-11-17T09:16:49.127Z,16.42
2022-11-17T09:17:51.913Z,15.32
2022-11-17T09:18:58.349Z,14.48
2022-11-17T09:20:00.683Z,14.70
2022-11-17T09:21:05.237Z,14.48
2022-11-17T09:22:07.720Z,13.35
2022-11-17T09:23:10.307Z,12.93
2022-11-17T09:24:12.573Z,12.90
2022-11-17T09:25:15.238Z,12.50
2022-11-17T09:26:17.890Z,13.95
2022-11-17T09:27:20.239Z,13.45
2022-11-17T09:28:25.407Z,14.10
2022-11-17T09:29:27.744Z,13.38
2022-11-17T09:30:30.176Z,13.50
2022-11-17T09:31:32.871Z,13.60
2022-11-17T09:32:35.660Z,12.55
2022-11-17T09:33:38.093Z,13.18
2022-11-17T09:34:40.611Z,13.40
2022-11-17T09:35:43.067Z,11.98
2022-11-17T09:36:45.385Z,12.82
2022-11-17T09:37:47.676Z,12.70
2022-11-17T09:38:50.928Z,12.38
2022-11-17T09:39:53.481Z,12.38
2022-11-17T09:40:58.361Z,11.85
2022-11-17T09:42:01.389Z,12.65
2022-11-17T09:43:08.695Z,12.30
2022-11-17T09:44:32.372Z,11.85
2022-11-17T09:45:38.740Z,11.57
2022-11-17T09:46:50.934Z,12.55
2022-11-17T09:48:25.846Z,11.60
2022-11-17T09:49:35.464Z,11.77
2022-11-17T09:50:39.846Z,11.32
2022-11-17T09:51:44.619Z,11.35
2022-11-17T09:52:50.032Z,11.23
2022-11-17T09:54:07.963Z,11.57
2022-11-17T09:55:31.143Z,11.40
2022-11-17T09:56:36.435Z,10.50
2022-11-17T09:57:49.069Z,10.52
2022-11-17T09:58:53.895Z,10.65
2022-11-17T10:00:21.508Z,10.88
2022-11-17T10:01:27.303Z,10.68
2022-11-17T10:02:29.843Z,10.98
2022-11-17T10:03:40.234Z,10.50
2022-11-17T10:04:46.721Z,11.07
2022-11-17T10:05:51.644Z,10.02
2022-11-17T10:06:54.236Z,10.27
2022-11-17T10:08:01.716Z,10.50
2022-11-17T10:09:36.538Z,10.07
2022-11-17T10:10:48.776Z,9.57
2022-11-17T10:11:52.786Z,9.15
2022-11-17T10:12:58.142Z,9.20
2022-11-17T10:14:12.198Z,9.75
2022-11-17T10:15:31.081Z,9.98
2022-11-17T10:16:33.657Z,10.38
2022-11-17T10:17:36.061Z,10.38
2022-11-17T10:18:39.987Z,10.02
2022-11-17T10:19:45.148Z,9.27
2022-11-17T10:20:47.614Z,9.82
2022-11-17T10:22:02.198Z,10.40
2022-11-17T10:23:07.182Z,9.43
2022-11-17T10:24:09.870Z,10.27
2022-11-17T10:25:28.169Z,9.57
2022-11-17T10:26:45.332Z,8.88
2022-11-17T10:27:53.827Z,9.88
2022-11-17T10:29:08.722Z,13.07
2022-11-17T10:30:24.696Z,9.68
2022-11-17T10:31:29.362Z,13.75
2022-11-17T10:32:35.920Z,14.30
2022-11-17T10:33:47.643Z,13.52
2022-11-17T10:34:50.184Z,12.18
2022-11-17T10:35:58.870Z,11.70
2022-11-17T10:37:27.449Z,11.98
2022-11-17T10:38:30.783Z,11.73
2022-11-17T10:39:42.164Z,11.23
2022-11-17T10:40:45.307Z,9.45
2022-11-17T10:41:50.400Z,10.18
2022-11-17T10:43:01.889Z,9.70
2022-11-17T10:44:06.082Z,9.23
2022-11-17T10:45:17.305Z,10.15
2022-11-17T10:46:19.647Z,9.30
2022-11-17T10:47:27.680Z,9.65
2022-11-17T10:49:06.965Z,9.80
2022-11-17T10:50:30.283Z,8.88
2022-11-17T10:51:35.126Z,9.07
2022-11-17T10:52:39.797Z,9.55
2022-11-17T10:53:46.743Z,9.15
2022-11-17T10:54:50.598Z,9.63
2022-11-17T10:56:00.737Z,9.07
2022-11-17T10:57:08.277Z,9.10
2022-11-17T10:58:27.144Z,9.02
2022-11-17T10:59:42.169Z,9.15
2022-11-17T11:00:53.414Z,9.40
2022-11-17T11:01:56.055Z,9.80
2022-11-17T11:03:26.336Z,9.23
2022-11-17T11:04:39.680Z,8.93
2022-11-17T11:06:03.397Z,9.25
2022-11-17T11:07:30.682Z,8.63
2022-11-17T11:08:51.482Z,8.30
2022-11-17T11:09:53.809Z,8.52
2022-11-17T11:10:59.711Z,8.63
2022-11-17T11:12:03.803Z,9.18
2022-11-17T11:13:24.632Z,9.07
2022-11-17T11:14:50.294Z,9.30
2022-11-17T11:15:53.511Z,10.40
2022-11-17T11:16:56.045Z,8.45
2022-11-17T11:17:59.448Z,8.77
2022-11-17T11:19:01.822Z,8.77
2022-11-17T11:20:04.561Z,9.00
2022-11-17T11:21:13.025Z,9.10
2022-11-17T11:22:27.733Z,9.00
2022-11-17T11:23:55.895Z,8.23
2022-11-17T11:25:15.999Z,9.00
2022-11-17T11:26:40.239Z,8.30
2022-11-17T11:28:04.894Z,9.00
2022-11-17T11:29:22.885Z,8.57
2022-11-17T11:30:26.671Z,9.00
2022-11-17T11:31:32.444Z,8.57
2022-11-17T11:32:37.466Z,8.50
2022-11-17T11:33:47.628Z,8.15
2022-11-17T11:34:57.023Z,8.85
2022-11-17T11:36:23.972Z,12.90
2022-11-17T11:37:51.566Z,11.85
2022-11-17T11:38:57.675Z,11.10
2022-11-17T11:40:21.993Z,11.10
2022-11-17T11:41:29.677Z,9.85
2022-11-17T11:43:04.978Z,10.43
2022-11-17T11:44:44.976Z,10.07
2022-11-17T11:45:59.278Z,10.30
2022-11-17T11:47:16.163Z,10.45
2022-11-17T11:48:40.456Z,10.07
2022-11-17T11:50:05.003Z,10.10
2022-11-17T11:51:16.224Z,9.10
2022-11-17T11:52:26.951Z,9.38
2022-11-17T11:53:42.335Z,9.05
2022-11-17T11:54:58.670Z,9.00
2022-11-17T11:56:17.159Z,8.82
2022-11-17T11:57:28.886Z,9.60
2022-11-17T11:58:31.470Z,9.30
2022-11-17T11:59:59.494Z,9.15
2022-11-17T12:01:12.087Z,8.43
2022-11-17T12:02:24.996Z,8.65
2022-11-17T12:03:55.096Z,9.70
2022-11-17T12:05:16.823Z,9.02
2022-11-17T12:07:50.229Z,8.40
2022-11-17T12:09:09.305Z,8.88
2022-11-17T12:10:11.727Z,8.13
2022-11-17T12:11:35.020Z,8.23
2022-11-17T12:12:39.388Z,10.05
2022-11-17T12:13:48.489Z,8.60
2022-11-17T12:15:19.999Z,8.52
2022-11-17T12:16:34.490Z,9.02
2022-11-17T12:17:38.014Z,6.63
2022-11-17T12:18:40.994Z,7.30
2022-11-17T12:19:54.338Z,8.15
2022-11-17T12:21:01.304Z,8.00
2022-11-17T12:22:03.825Z,8.48
2022-11-17T12:23:15.462Z,7.75
2022-11-17T12:24:25.861Z,8.05
2022-11-17T12:25:31.364Z,8.30
2022-11-17T12:26:34.911Z,8.90
2022-11-17T12:27:38.317Z,8.00
2022-11-17T12:28:41.485Z,8.45
2022-11-17T12:29:47.390Z,7.82
2022-11-17T12:30:52.629Z,8.15
2022-11-17T12:32:03.882Z,8.13
2022-11-17T12:33:08.656Z,7.80
2022-11-17T12:34:30.708Z,8.45
2022-11-17T12:35:39.025Z,8.10
2022-11-17T12:36:41.575Z,8.57
2022-11-17T12:37:45.400Z,9.10
2022-11-17T12:38:48.170Z,8.88
2022-11-17T12:40:34.973Z,8.82
2022-11-17T12:41:49.729Z,8.52
2022-11-17T12:43:16.764Z,8.07
2022-11-17T12:44:37.460Z,8.15
2022-11-17T12:46:06.876Z,9.15
2022-11-17T12:47:24.370Z,8.88
2022-11-17T12:48:35.279Z,7.97
2022-11-17T12:50:03.647Z,8.18
2022-11-17T12:51:28.472Z,7.57
2022-11-17T12:52:55.162Z,8.13
2022-11-17T12:54:06.840Z,9.05
2022-11-17T12:55:33.092Z,8.68
2022-11-17T12:57:08.357Z,8.57
2022-11-17T12:58:25.131Z,9.20
2022-11-17T12:59:49.066Z,9.25
2022-11-17T13:01:13.816Z,9.10
2022-11-17T13:02:22.683Z,8.60
2022-11-17T13:03:39.180Z,8.20
2022-11-17T13:04:49.791Z,8.55
2022-11-17T13:06:34.285Z,7.65
2022-11-17T13:07:35.862Z,8.60
2022-11-17T13:08:38.436Z,8.05
2022-11-17T13:09:42.123Z,9.30
2022-11-17T13:10:45.819Z,8.27
2022-11-17T13:12:04.309Z,8.32
2022-11-17T13:13:10.712Z,8.45
2022-11-17T13:14:17.440Z,8.35
2022-11-17T13:15:23.957Z,8.02
2022-11-17T13:16:26.475Z,8.38
2022-11-17T13:17:34.553Z,7.22
2022-11-17T13:18:40.355Z,8.40
2022-11-17T13:19:43.909Z,8.35
2022-11-17T13:20:49.032Z,8.20
2022-11-17T13:21:59.613Z,8.50
2022-11-17T13:23:04.480Z,8.70
2022-11-17T13:24:08.677Z,7.90
2022-11-17T13:25:23.350Z,8.00
2022-11-17T13:26:38.106Z,8.23
2022-11-17T13:27:49.179Z,8.05
2022-11-17T13:29:08.046Z,7.47
2022-11-17T13:30:23.525Z,7.53
2022-11-17T13:31:26.026Z,7.57
2022-11-17T13:32:28.722Z,7.65
2022-11-17T13:33:38.404Z,7.47
2022-11-17T13:35:48.645Z,8.48
2022-11-17T13:36:59.208Z,7.82
2022-11-17T13:38:21.982Z,8.57
2022-11-17T13:39:27.777Z,7.90
2022-11-17T13:40:31.901Z,8.32
2022-11-17T13:41:39.121Z,7.10
2022-11-17T13:42:41.829Z,7.60
2022-11-17T13:43:46.107Z,8.38
2022-11-17T13:44:48.878Z,8.38
2022-11-17T13:45:52.977Z,7.93
2022-11-17T13:46:56.056Z,7.32
2022-11-17T13:47:59.443Z,7.90
2022-11-17T13:49:21.821Z,8.07
2022-11-17T13:50:26.854Z,7.53
2022-11-17T13:51:39.335Z,7.90
2022-11-17T13:52:46.717Z,7.43
2022-11-17T13:54:06.864Z,7.72
2022-11-17T13:55:17.656Z,7.82
2022-11-17T13:56:41.980Z,7.75
2022-11-17T13:58:07.783Z,8.52
2022-11-17T13:59:31.237Z,7.43
2022-11-17T14:00:34.178Z,7.45
2022-11-17T14:01:36.635Z,5.30
2022-11-17T14:03:03.136Z,6.00
2022-11-17T14:04:21.222Z,7.88
2022-11-17T14:05:28.692Z,7.78
2022-11-17T14:07:00.530Z,6.50
2022-11-17T14:08:27.080Z,7.57
2022-11-17T14:09:31.965Z,11.25
2022-11-17T14:10:38.092Z,7.72
2022-11-17T14:11:41.749Z,6.97
2022-11-17T14:12:44.487Z,7.70
2022-11-17T14:13:58.636Z,7.18
2022-11-17T14:15:01.022Z,8.10
2022-11-17T14:16:03.533Z,7.82
2022-11-17T14:17:18.696Z,7.50
2022-11-17T14:18:37.404Z,7.05
2022-11-17T14:19:39.996Z,7.22
2022-11-17T14:20:42.503Z,6.75
2022-11-17T14:22:03.746Z,7.78
2022-11-17T14:23:17.871Z,7.68
2022-11-17T14:24:20.230Z,7.35
2022-11-17T14:25:22.555Z,7.15
2022-11-17T14:26:25.289Z,7.05
2022-11-17T14:27:27.615Z,7.78
2022-11-17T14:28:30.010Z,7.80
2022-11-17T14:29:32.740Z,6.93
2022-11-17T14:30:35.218Z,7.68
2022-11-17T14:31:37.563Z,7.78
2022-11-17T14:32:40.188Z,7.82
2022-11-17T14:33:42.825Z,7.28
2022-11-17T14:34:45.168Z,7.63
2022-11-17T14:35:53.701Z,7.60
2022-11-17T14:36:56.440Z,7.72
2022-11-17T14:38:01.111Z,6.80
2022-11-17T14:39:04.496Z,7.05
2022-11-17T14:40:12.827Z,7.28
2022-11-17T14:41:16.300Z,6.50
2022-11-17T14:42:18.606Z,6.80
2022-11-17T14:43:21.795Z,7.70
2022-11-17T14:44:24.134Z,7.43
2022-11-17T14:45:26.742Z,7.32
2022-11-17T14:46:29.047Z,7.45
2022-11-17T14:47:31.406Z,6.90
2022-11-17T14:48:33.832Z,7.20
2022-11-17T14:49:36.302Z,7.10
2022-11-17T14:50:39.012Z,7.50
2022-11-17T14:51:41.769Z,7.10